sensor_id;sensor_type;location;lat;lon;timestamp;pressure;altitude;pressure_sealevel;temperature;humidity
45888;BME280;31595;51.418;7.572;2023-03-23T00:00:32;99179.88;;;13.48;65.16
45888;BME280;31595;51.418;7.572;2023-03-23T00:03:05;99163.84;;;13.45;64.87
45888;BME280;31595;51.418;7.572;2023-03-23T00:05:44;99171.69;;;13.39;66.03
45888;BME280;31595;51.418;7.572;2023-03-23T00:08:22;99181.19;;;13.34;67.42
45888;BME280;31595;51.418;7.572;2023-03-23T00:10:59;99175.41;;;13.27;67.17
45888;BME280;31595;51.418;7.572;2023-03-23T00:13:44;99161.81;;;13.10;67.56
45888;BME280;31595;51.418;7.572;2023-03-23T00:16:32;99161.09;;;13.13;68.04
45888;BME280;31595;51.418;7.572;2023-03-23T00:19:05;99157.09;;;13.14;68.96
45888;BME280;31595;51.418;7.572;2023-03-23T00:21:57;99153.16;;;13.15;69.07
45888;BME280;31595;51.418;7.572;2023-03-23T00:24:29;99147.38;;;13.08;69.11
45888;BME280;31595;51.418;7.572;2023-03-23T00:27:01;99140.38;;;12.98;69.29
45888;BME280;31595;51.418;7.572;2023-03-23T00:29:32;99145.06;;;12.94;69.84
45888;BME280;31595;51.418;7.572;2023-03-23T00:32:06;99135.31;;;13.04;69.28
45888;BME280;31595;51.418;7.572;2023-03-23T00:34:59;99140.28;;;12.94;68.48
45888;BME280;31595;51.418;7.572;2023-03-23T00:37:41;99134.69;;;12.94;69.10
45888;BME280;31595;51.418;7.572;2023-03-23T00:40:11;99129.00;;;13.07;68.32
45888;BME280;31595;51.418;7.572;2023-03-23T00:42:46;99131.16;;;13.13;68.89
45888;BME280;31595;51.418;7.572;2023-03-23T00:45:14;99130.78;;;13.15;68.81
45888;BME280;31595;51.418;7.572;2023-03-23T00:47:51;99129.16;;;13.14;68.32
45888;BME280;31595;51.418;7.572;2023-03-23T00:50:31;99123.34;;;13.23;67.99
45888;BME280;31595;51.418;7.572;2023-03-23T00:53:01;99123.00;;;13.24;68.42
45888;BME280;31595;51.418;7.572;2023-03-23T00:55:31;99103.63;;;13.15;68.53
45888;BME280;31595;51.418;7.572;2023-03-23T00:58:01;99124.63;;;13.25;68.46
45888;BME280;31595;51.418;7.572;2023-03-23T01:00:29;99120.19;;;13.24;68.47
45888;BME280;31595;51.418;7.572;2023-03-23T01:03:02;99117.84;;;13.26;68.17
45888;BME280;31595;51.418;7.572;2023-03-23T01:05:34;99118.41;;;13.32;67.63
45888;BME280;31595;51.418;7.572;2023-03-23T01:08:04;99126.78;;;13.32;66.99
45888;BME280;31595;51.418;7.572;2023-03-23T01:10:36;99116.31;;;13.29;67.18
45888;BME280;31595;51.418;7.572;2023-03-23T01:13:14;99121.72;;;13.37;66.22
45888;BME280;31595;51.418;7.572;2023-03-23T01:15:46;99136.78;;;13.33;66.50
45888;BME280;31595;51.418;7.572;2023-03-23T01:18:21;99108.16;;;13.39;65.50
45888;BME280;31595;51.418;7.572;2023-03-23T01:20:51;99109.06;;;13.44;65.98
45888;BME280;31595;51.418;7.572;2023-03-23T01:23:20;99102.28;;;13.45;66.74
45888;BME280;31595;51.418;7.572;2023-03-23T01:25:48;99100.97;;;13.38;66.17
45888;BME280;31595;51.418;7.572;2023-03-23T01:28:20;99108.78;;;13.49;65.92
45888;BME280;31595;51.418;7.572;2023-03-23T01:30:48;99115.97;;;13.50;66.35
45888;BME280;31595;51.418;7.572;2023-03-23T01:33:19;99120.84;;;13.53;65.54
45888;BME280;31595;51.418;7.572;2023-03-23T01:35:46;99121.78;;;13.60;66.32
45888;BME280;31595;51.418;7.572;2023-03-23T01:38:14;99110.81;;;13.52;66.45
45888;BME280;31595;51.418;7.572;2023-03-23T01:40:43;99128.88;;;13.54;66.36
45888;BME280;31595;51.418;7.572;2023-03-23T01:43:15;99112.22;;;13.62;67.43
45888;BME280;31595;51.418;7.572;2023-03-23T01:45:45;99112.69;;;13.44;68.34
45888;BME280;31595;51.418;7.572;2023-03-23T01:48:18;99120.63;;;13.42;69.50
45888;BME280;31595;51.418;7.572;2023-03-23T01:50:59;99125.25;;;13.34;69.68
45888;BME280;31595;51.418;7.572;2023-03-23T01:53:37;99126.16;;;12.87;74.72
45888;BME280;31595;51.418;7.572;2023-03-23T01:56:07;99111.84;;;12.57;77.49
45888;BME280;31595;51.418;7.572;2023-03-23T01:58:38;99119.50;;;12.28;79.79
45888;BME280;31595;51.418;7.572;2023-03-23T02:01:10;99113.16;;;12.00;83.46
45888;BME280;31595;51.418;7.572;2023-03-23T02:03:41;99121.28;;;11.76;87.88
45888;BME280;31595;51.418;7.572;2023-03-23T02:06:11;99116.66;;;11.68;89.74
45888;BME280;31595;51.418;7.572;2023-03-23T02:08:40;99111.44;;;11.67;89.92
45888;BME280;31595;51.418;7.572;2023-03-23T02:11:13;99115.84;;;11.68;89.59
45888;BME280;31595;51.418;7.572;2023-03-23T02:13:42;99119.34;;;11.65;90.47
45888;BME280;31595;51.418;7.572;2023-03-23T02:16:16;99109.44;;;11.67;90.84
45888;BME280;31595;51.418;7.572;2023-03-23T02:18:55;99115.03;;;11.67;89.13
45888;BME280;31595;51.418;7.572;2023-03-23T02:21:51;99098.75;;;11.69;87.90
45888;BME280;31595;51.418;7.572;2023-03-23T02:24:59;99110.66;;;11.82;86.58
45888;BME280;31595;51.418;7.572;2023-03-23T02:33:36;99080.31;;;11.93;83.63
45888;BME280;31595;51.418;7.572;2023-03-23T02:36:23;99077.97;;;11.95;83.85
45888;BME280;31595;51.418;7.572;2023-03-23T02:39:08;99075.53;;;11.93;83.88
45888;BME280;31595;51.418;7.572;2023-03-23T02:41:41;99077.97;;;11.95;83.13
45888;BME280;31595;51.418;7.572;2023-03-23T02:44:10;99056.59;;;11.87;82.98
45888;BME280;31595;51.418;7.572;2023-03-23T02:46:40;99043.69;;;11.82;84.25
45888;BME280;31595;51.418;7.572;2023-03-23T02:49:12;99045.91;;;11.89;84.04
45888;BME280;31595;51.418;7.572;2023-03-23T02:51:53;99045.91;;;11.89;83.37
45888;BME280;31595;51.418;7.572;2023-03-23T02:54:27;99016.88;;;11.77;83.11
45888;BME280;31595;51.418;7.572;2023-03-23T02:57:00;99035.50;;;11.73;83.33
45888;BME280;31595;51.418;7.572;2023-03-23T02:59:33;99007.44;;;11.82;82.99
45888;BME280;31595;51.418;7.572;2023-03-23T03:02:04;99017.72;;;11.78;83.81
45888;BME280;31595;51.418;7.572;2023-03-23T03:04:39;99014.19;;;11.81;83.27
45888;BME280;31595;51.418;7.572;2023-03-23T03:07:43;99013.09;;;11.86;82.93
45888;BME280;31595;51.418;7.572;2023-03-23T03:10:30;99009.25;;;11.90;82.25
45888;BME280;31595;51.418;7.572;2023-03-23T03:13:07;99004.38;;;11.87;82.05
45888;BME280;31595;51.418;7.572;2023-03-23T03:15:39;99009.06;;;11.83;81.63
45888;BME280;31595;51.418;7.572;2023-03-23T03:18:14;99011.72;;;11.92;81.09
45888;BME280;31595;51.418;7.572;2023-03-23T03:20:54;99010.28;;;11.98;80.71
45888;BME280;31595;51.418;7.572;2023-03-23T03:26:22;99009.72;;;12.08;80.05
45888;BME280;31595;51.418;7.572;2023-03-23T03:28:57;98994.53;;;12.06;78.94
45888;BME280;31595;51.418;7.572;2023-03-23T03:31:30;99002.25;;;12.12;78.90
45888;BME280;31595;51.418;7.572;2023-03-23T03:33:59;99009.53;;;12.17;78.85
45888;BME280;31595;51.418;7.572;2023-03-23T03:36:34;99008.00;;;12.19;78.17
45888;BME280;31595;51.418;7.572;2023-03-23T03:39:05;99000.09;;;12.22;77.76
45888;BME280;31595;51.418;7.572;2023-03-23T03:41:37;99012.53;;;12.24;77.93
45888;BME280;31595;51.418;7.572;2023-03-23T03:44:05;99005.13;;;12.32;77.61
45888;BME280;31595;51.418;7.572;2023-03-23T03:46:33;99009.34;;;12.26;77.25
45888;BME280;31595;51.418;7.572;2023-03-23T03:49:02;99006.09;;;12.39;76.28
45888;BME280;31595;51.418;7.572;2023-03-23T03:51:34;99013.94;;;12.34;76.28
45888;BME280;31595;51.418;7.572;2023-03-23T03:54:02;99006.31;;;12.31;75.86
45888;BME280;31595;51.418;7.572;2023-03-23T03:56:34;99022.16;;;12.27;75.27
45888;BME280;31595;51.418;7.572;2023-03-23T03:59:20;99044.50;;;12.27;75.28
45888;BME280;31595;51.418;7.572;2023-03-23T04:01:54;99028.78;;;12.38;75.50
45888;BME280;31595;51.418;7.572;2023-03-23T04:04:27;99036.03;;;12.39;74.97
45888;BME280;31595;51.418;7.572;2023-03-23T04:07:04;99033.13;;;12.35;75.38
45888;BME280;31595;51.418;7.572;2023-03-23T04:09:43;99020.72;;;12.33;74.99
45888;BME280;31595;51.418;7.572;2023-03-23T04:12:17;99026.34;;;12.36;74.16
45888;BME280;31595;51.418;7.572;2023-03-23T04:14:46;99018.97;;;12.44;74.21
45888;BME280;31595;51.418;7.572;2023-03-23T04:17:14;99024.84;;;12.39;74.38
45888;BME280;31595;51.418;7.572;2023-03-23T04:19:47;99026.56;;;12.44;74.19
45888;BME280;31595;51.418;7.572;2023-03-23T04:22:22;99012.34;;;12.33;73.53
45888;BME280;31595;51.418;7.572;2023-03-23T04:24:57;99010.88;;;12.39;74.74
45888;BME280;31595;51.418;7.572;2023-03-23T04:27:27;99025.91;;;12.50;74.25
45888;BME280;31595;51.418;7.572;2023-03-23T04:29:56;99025.38;;;12.45;74.11
45888;BME280;31595;51.418;7.572;2023-03-23T04:32:24;99027.91;;;12.50;74.16
45888;BME280;31595;51.418;7.572;2023-03-23T04:34:55;99024.25;;;12.49;73.70
45888;BME280;31595;51.418;7.572;2023-03-23T04:37:26;99018.69;;;12.49;72.83
45888;BME280;31595;51.418;7.572;2023-03-23T04:40:00;99025.91;;;12.50;72.86
45888;BME280;31595;51.418;7.572;2023-03-23T04:42:32;99024.25;;;12.49;72.65
45888;BME280;31595;51.418;7.572;2023-03-23T04:45:00;99009.25;;;12.54;72.92
45888;BME280;31595;51.418;7.572;2023-03-23T04:47:32;99021.31;;;12.58;72.91
45888;BME280;31595;51.418;7.572;2023-03-23T04:50:00;99003.91;;;12.65;72.66
45888;BME280;31595;51.418;7.572;2023-03-23T04:52:29;99009.75;;;12.59;72.59
45888;BME280;31595;51.418;7.572;2023-03-23T04:54:57;99013.38;;;12.60;72.12
45888;BME280;31595;51.418;7.572;2023-03-23T04:57:24;99028.59;;;12.63;71.79
45888;BME280;31595;51.418;7.572;2023-03-23T04:59:53;99018.13;;;12.59;72.65
45888;BME280;31595;51.418;7.572;2023-03-23T05:02:20;99019.75;;;12.61;71.94
45888;BME280;31595;51.418;7.572;2023-03-23T05:04:51;99029.28;;;12.59;72.83
45888;BME280;31595;51.418;7.572;2023-03-23T05:07:20;99030.19;;;12.64;72.71
45888;BME280;31595;51.418;7.572;2023-03-23T05:09:49;99029.28;;;12.59;72.03
45888;BME280;31595;51.418;7.572;2023-03-23T05:12:17;99034.19;;;12.63;72.24
45888;BME280;31595;51.418;7.572;2023-03-23T05:14:44;99026.69;;;12.67;71.42
45888;BME280;31595;51.418;7.572;2023-03-23T05:17:12;99007.94;;;12.67;71.75
45888;BME280;31595;51.418;7.572;2023-03-23T05:19:44;99035.13;;;12.70;72.10
45888;BME280;31595;51.418;7.572;2023-03-23T05:22:13;99016.84;;;12.73;71.89
45888;BME280;31595;51.418;7.572;2023-03-23T05:24:41;99038.47;;;12.76;71.74
45888;BME280;31595;51.418;7.572;2023-03-23T05:27:10;99032.88;;;12.76;71.25
45888;BME280;31595;51.418;7.572;2023-03-23T05:29:38;99039.47;;;12.68;70.42
45888;BME280;31595;51.418;7.572;2023-03-23T05:32:07;99030.72;;;12.69;71.02
45888;BME280;31595;51.418;7.572;2023-03-23T05:34:35;99049.94;;;12.71;70.41
45888;BME280;31595;51.418;7.572;2023-03-23T05:37:03;99032.88;;;12.76;70.61
45888;BME280;31595;51.418;7.572;2023-03-23T05:39:31;99040.34;;;12.72;70.92
45888;BME280;31595;51.418;7.572;2023-03-23T05:41:58;99060.09;;;12.79;70.71
45888;BME280;31595;51.418;7.572;2023-03-23T05:44:27;99050.25;;;12.85;69.87
45888;BME280;31595;51.418;7.572;2023-03-23T05:46:55;99032.97;;;12.79;69.97
45888;BME280;31595;51.418;7.572;2023-03-23T05:49:22;99045.91;;;12.88;69.70
45888;BME280;31595;51.418;7.572;2023-03-23T05:51:50;99045.91;;;12.88;70.06
45888;BME280;31595;51.418;7.572;2023-03-23T05:54:17;99053.28;;;12.96;69.05
45888;BME280;31595;51.418;7.572;2023-03-23T05:56:45;99061.38;;;13.01;68.97
45888;BME280;31595;51.418;7.572;2023-03-23T05:59:12;99055.53;;;13.06;69.78
45888;BME280;31595;51.418;7.572;2023-03-23T06:01:41;99059.69;;;12.96;69.12
45888;BME280;31595;51.418;7.572;2023-03-23T06:04:08;99063.00;;;13.02;70.10
45888;BME280;31595;51.418;7.572;2023-03-23T06:06:37;99062.06;;;13.14;68.96
45888;BME280;31595;51.418;7.572;2023-03-23T06:09:05;99062.50;;;13.16;68.63
45888;BME280;31595;51.418;7.572;2023-03-23T06:11:32;99060.00;;;13.11;69.52
45888;BME280;31595;51.418;7.572;2023-03-23T06:14:00;99061.03;;;13.22;68.90
45888;BME280;31595;51.418;7.572;2023-03-23T06:16:29;99072.22;;;13.22;69.25
45888;BME280;31595;51.418;7.572;2023-03-23T06:18:58;99063.75;;;13.18;68.51
45888;BME280;31595;51.418;7.572;2023-03-23T06:21:26;99077.09;;;13.25;67.88
45888;BME280;31595;51.418;7.572;2023-03-23T06:23:53;99072.66;;;13.24;68.85
45888;BME280;31595;51.418;7.572;2023-03-23T06:26:24;99070.91;;;13.35;67.50
45888;BME280;31595;51.418;7.572;2023-03-23T06:28:52;99069.84;;;13.40;67.48
45888;BME280;31595;51.418;7.572;2023-03-23T06:31:20;99074.59;;;13.39;66.90
45888;BME280;31595;51.418;7.572;2023-03-23T06:33:48;99080.81;;;13.49;67.43
45888;BME280;31595;51.418;7.572;2023-03-23T06:36:17;99082.63;;;13.60;67.70
45888;BME280;31595;51.418;7.572;2023-03-23T06:38:44;99079.47;;;13.62;67.29
45888;BME280;31595;51.418;7.572;2023-03-23T06:41:12;99082.41;;;13.69;66.23
45888;BME280;31595;51.418;7.572;2023-03-23T06:43:39;99087.69;;;13.74;66.61
45888;BME280;31595;51.418;7.572;2023-03-23T06:46:06;99088.91;;;13.73;65.54
45888;BME280;31595;51.418;7.572;2023-03-23T06:48:34;99088.16;;;13.76;65.19
45888;BME280;31595;51.418;7.572;2023-03-23T06:51:02;99082.66;;;13.84;65.42
45888;BME280;31595;51.418;7.572;2023-03-23T06:53:31;99101.22;;;13.92;64.95
45888;BME280;31595;51.418;7.572;2023-03-23T06:55:59;99086.56;;;13.98;65.26
45888;BME280;31595;51.418;7.572;2023-03-23T06:58:26;99085.94;;;14.09;64.48
45888;BME280;31595;51.418;7.572;2023-03-23T07:00:54;99100.16;;;14.19;63.52
45888;BME280;31595;51.418;7.572;2023-03-23T07:03:23;99113.72;;;14.17;63.31
45888;BME280;31595;51.418;7.572;2023-03-23T07:05:51;99096.41;;;14.12;63.70
45888;BME280;31595;51.418;7.572;2023-03-23T07:08:19;99095.47;;;14.04;63.66
45888;BME280;31595;51.418;7.572;2023-03-23T07:10:50;99093.19;;;14.10;62.43
45888;BME280;31595;51.418;7.572;2023-03-23T07:13:19;99090.88;;;14.15;62.50
45888;BME280;31595;51.418;7.572;2023-03-23T07:15:47;99097.03;;;14.25;62.89
45888;BME280;31595;51.418;7.572;2023-03-23T07:18:14;99100.78;;;14.32;61.55
45888;BME280;31595;51.418;7.572;2023-03-23T07:20:42;99097.56;;;14.30;61.75
45888;BME280;31595;51.418;7.572;2023-03-23T07:23:09;99100.78;;;14.32;60.92
45888;BME280;31595;51.418;7.572;2023-03-23T07:25:36;99105.56;;;14.32;62.06
45888;BME280;31595;51.418;7.572;2023-03-23T07:28:05;99107.38;;;14.44;61.14
45888;BME280;31595;51.418;7.572;2023-03-23T07:30:32;99117.78;;;14.43;60.29
45888;BME280;31595;51.418;7.572;2023-03-23T07:33:04;99101.84;;;14.47;60.91
45888;BME280;31595;51.418;7.572;2023-03-23T07:35:35;99123.50;;;14.50;59.84
45888;BME280;31595;51.418;7.572;2023-03-23T07:38:15;99110.72;;;14.53;60.74
45888;BME280;31595;51.418;7.572;2023-03-23T07:40:59;99107.00;;;14.45;60.73
45888;BME280;31595;51.418;7.572;2023-03-23T07:43:34;99120.75;;;14.54;59.68
45888;BME280;31595;51.418;7.572;2023-03-23T07:46:18;99115.84;;;14.70;58.43
45888;BME280;31595;51.418;7.572;2023-03-23T07:48:49;99128.09;;;14.85;58.32
45888;BME280;31595;51.418;7.572;2023-03-23T07:51:26;99110.59;;;14.92;58.77
45888;BME280;31595;51.418;7.572;2023-03-23T07:54:06;99106.00;;;14.80;58.60
45888;BME280;31595;51.418;7.572;2023-03-23T07:56:40;99101.16;;;15.04;58.11
45888;BME280;31595;51.418;7.572;2023-03-23T07:59:18;99118.28;;;14.98;57.08
45888;BME280;31595;51.418;7.572;2023-03-23T08:01:54;99103.53;;;15.01;57.67
45888;BME280;31595;51.418;7.572;2023-03-23T08:04:25;99103.53;;;15.01;56.92
45888;BME280;31595;51.418;7.572;2023-03-23T08:07:01;99103.56;;;15.05;57.92
45888;BME280;31595;51.418;7.572;2023-03-23T08:09:31;99098.22;;;15.23;56.27
45888;BME280;31595;51.418;7.572;2023-03-23T08:12:23;99109.53;;;15.30;55.98
45888;BME280;31595;51.418;7.572;2023-03-23T08:15:08;99100.50;;;15.44;56.46
45888;BME280;31595;51.418;7.572;2023-03-23T08:17:46;99109.59;;;15.34;57.05
45888;BME280;31595;51.418;7.572;2023-03-23T08:20:23;99112.97;;;15.47;55.82
45888;BME280;31595;51.418;7.572;2023-03-23T08:22:57;99126.50;;;15.41;56.60
45888;BME280;31595;51.418;7.572;2023-03-23T08:25:31;99128.22;;;15.49;55.79
45888;BME280;31595;51.418;7.572;2023-03-23T08:28:21;99120.63;;;15.50;55.87
45888;BME280;31595;51.418;7.572;2023-03-23T08:30:58;99118.72;;;15.57;55.83
45888;BME280;31595;51.418;7.572;2023-03-23T08:33:33;99128.78;;;15.62;54.94
45888;BME280;31595;51.418;7.572;2023-03-23T08:36:03;99116.25;;;15.52;55.55
45888;BME280;31595;51.418;7.572;2023-03-23T08:41:43;99122.38;;;15.61;54.83
45888;BME280;31595;51.418;7.572;2023-03-23T08:44:45;99127.84;;;15.81;54.15
45888;BME280;31595;51.418;7.572;2023-03-23T08:47:14;99117.09;;;15.87;54.77
45888;BME280;31595;51.418;7.572;2023-03-23T08:49:53;99119.25;;;16.00;52.99
45888;BME280;31595;51.418;7.572;2023-03-23T08:52:42;99115.13;;;16.28;52.99
45888;BME280;31595;51.418;7.572;2023-03-23T08:55:11;99129.28;;;16.39;52.41
45888;BME280;31595;51.418;7.572;2023-03-23T08:57:49;99120.44;;;16.37;51.89
45888;BME280;31595;51.418;7.572;2023-03-23T09:00:45;99136.13;;;16.41;51.46
45888;BME280;31595;51.418;7.572;2023-03-23T09:03:15;99124.59;;;16.54;51.59
45888;BME280;31595;51.418;7.572;2023-03-23T09:05:43;99133.63;;;16.77;50.48
45888;BME280;31595;51.418;7.572;2023-03-23T09:08:19;99154.59;;;16.83;50.24
45888;BME280;31595;51.418;7.572;2023-03-23T09:11:05;99141.16;;;17.11;49.36
45888;BME280;31595;51.418;7.572;2023-03-23T09:13:38;99137.31;;;17.37;48.57
45888;BME280;31595;51.418;7.572;2023-03-23T09:16:06;99137.84;;;17.68;48.15
45888;BME280;31595;51.418;7.572;2023-03-23T09:18:44;99149.44;;;17.52;48.02
45888;BME280;31595;51.418;7.572;2023-03-23T09:21:33;99146.88;;;17.25;48.88
45888;BME280;31595;51.418;7.572;2023-03-23T09:27:32;99159.16;;;16.99;50.17
45888;BME280;31595;51.418;7.572;2023-03-23T09:30:10;99162.91;;;16.73;51.89
45888;BME280;31595;51.418;7.572;2023-03-23T09:32:46;99170.69;;;16.46;54.29
45888;BME280;31595;51.418;7.572;2023-03-23T09:38:02;99171.47;;;16.05;55.29
45888;BME280;31595;51.418;7.572;2023-03-23T09:40:54;99175.25;;;15.86;54.82
45888;BME280;31595;51.418;7.572;2023-03-23T09:43:50;99166.97;;;15.97;55.72
45888;BME280;31595;51.418;7.572;2023-03-23T09:49:50;99160.00;;;15.87;53.60
45888;BME280;31595;51.418;7.572;2023-03-23T09:55:48;99179.41;;;15.96;52.89
45888;BME280;31595;51.418;7.572;2023-03-23T09:58:46;99193.22;;;16.12;52.75
45888;BME280;31595;51.418;7.572;2023-03-23T10:01:43;99193.59;;;16.10;52.71
45888;BME280;31595;51.418;7.572;2023-03-23T10:10:36;99184.63;;;16.35;51.27
45888;BME280;31595;51.418;7.572;2023-03-23T10:13:26;99164.13;;;16.72;50.19
45888;BME280;31595;51.418;7.572;2023-03-23T10:19:17;99167.53;;;16.92;49.96
45888;BME280;31595;51.418;7.572;2023-03-23T10:25:19;99157.41;;;17.35;47.61
45888;BME280;31595;51.418;7.572;2023-03-23T10:27:54;99156.28;;;17.51;47.49
45888;BME280;31595;51.418;7.572;2023-03-23T10:30:36;99159.81;;;18.17;45.62
45888;BME280;31595;51.418;7.572;2023-03-23T10:33:13;99160.19;;;20.65;40.05
45888;BME280;31595;51.418;7.572;2023-03-23T10:35:47;99162.31;;;19.41;42.40
45888;BME280;31595;51.418;7.572;2023-03-23T10:38:21;99173.56;;;19.59;42.42
45888;BME280;31595;51.418;7.572;2023-03-23T10:40:57;99181.28;;;19.22;41.25
45888;BME280;31595;51.418;7.572;2023-03-23T10:43:29;99179.25;;;18.76;41.89
45888;BME280;31595;51.418;7.572;2023-03-23T10:46:02;99197.34;;;18.57;42.67
45888;BME280;31595;51.418;7.572;2023-03-23T10:48:33;99174.19;;;17.83;43.85
45888;BME280;31595;51.418;7.572;2023-03-23T10:51:10;99182.19;;;17.19;45.38
45888;BME280;31595;51.418;7.572;2023-03-23T10:53:45;99203.50;;;16.75;49.21
45888;BME280;31595;51.418;7.572;2023-03-23T10:56:28;99205.88;;;16.70;50.20
45888;BME280;31595;51.418;7.572;2023-03-23T11:02:17;99239.91;;;16.23;54.34
45888;BME280;31595;51.418;7.572;2023-03-23T11:05:09;99248.31;;;15.90;57.30
45888;BME280;31595;51.418;7.572;2023-03-23T11:07:52;99250.72;;;15.91;57.95
45888;BME280;31595;51.418;7.572;2023-03-23T11:10:33;99257.00;;;15.81;58.32
45888;BME280;31595;51.418;7.572;2023-03-23T11:13:27;99262.59;;;15.77;58.72
45888;BME280;31595;51.418;7.572;2023-03-23T11:16:24;99261.88;;;15.84;57.93
45888;BME280;31595;51.418;7.572;2023-03-23T11:19:00;99269.88;;;15.82;58.24
45888;BME280;31595;51.418;7.572;2023-03-23T11:25:00;99277.38;;;15.51;58.88
45888;BME280;31595;51.418;7.572;2023-03-23T11:27:42;99284.22;;;15.27;59.53
45888;BME280;31595;51.418;7.572;2023-03-23T11:30:29;99282.06;;;14.94;62.55
45888;BME280;31595;51.418;7.572;2023-03-23T11:33:22;99270.28;;;15.08;63.83
45888;BME280;31595;51.418;7.572;2023-03-23T11:36:01;99271.56;;;14.91;65.25
45888;BME280;31595;51.418;7.572;2023-03-23T11:38:40;99264.28;;;15.09;64.57
45888;BME280;31595;51.418;7.572;2023-03-23T11:41:22;99263.16;;;15.14;64.30
45888;BME280;31595;51.418;7.572;2023-03-23T11:44:09;99266.53;;;15.23;64.11
45888;BME280;31595;51.418;7.572;2023-03-23T11:46:57;99260.97;;;15.27;63.91
45888;BME280;31595;51.418;7.572;2023-03-23T11:49:54;99267.41;;;15.04;64.19
45888;BME280;31595;51.418;7.572;2023-03-23T11:52:36;99267.84;;;14.83;64.61
45888;BME280;31595;51.418;7.572;2023-03-23T11:55:14;99270.56;;;14.79;65.42
45888;BME280;31595;51.418;7.572;2023-03-23T11:57:47;99266.25;;;14.63;66.05
45888;BME280;31595;51.418;7.572;2023-03-23T12:00:17;99269.81;;;14.59;66.63
45888;BME280;31595;51.418;7.572;2023-03-23T12:05:58;99253.25;;;14.54;65.91
45888;BME280;31595;51.418;7.572;2023-03-23T12:08:56;99252.94;;;14.56;66.84
45888;BME280;31595;51.418;7.572;2023-03-23T12:11:45;99260.22;;;14.41;66.50
45888;BME280;31595;51.418;7.572;2023-03-23T12:14:47;99263.81;;;14.41;66.95
45888;BME280;31595;51.418;7.572;2023-03-23T12:17:23;99264.06;;;14.33;67.08
45888;BME280;31595;51.418;7.572;2023-03-23T12:20:11;99261.91;;;14.26;68.02
45888;BME280;31595;51.418;7.572;2023-03-23T12:22:51;99253.06;;;14.24;66.68
45888;BME280;31595;51.418;7.572;2023-03-23T12:25:45;99258.56;;;14.40;67.67
45888;BME280;31595;51.418;7.572;2023-03-23T12:31:44;99258.78;;;14.51;68.54
45888;BME280;31595;51.418;7.572;2023-03-23T12:34:20;99268.75;;;14.68;67.84
45888;BME280;31595;51.418;7.572;2023-03-23T12:40:06;99251.09;;;15.36;67.04
45888;BME280;31595;51.418;7.572;2023-03-23T12:42:51;99250.28;;;15.36;65.72
45888;BME280;31595;51.418;7.572;2023-03-23T12:46:09;99255.63;;;15.45;66.10
45888;BME280;31595;51.418;7.572;2023-03-23T12:48:45;99245.38;;;15.29;64.45
45888;BME280;31595;51.418;7.572;2023-03-23T12:51:26;99250.94;;;15.26;65.42
45888;BME280;31595;51.418;7.572;2023-03-23T12:54:21;99247.31;;;15.25;65.82
45888;BME280;31595;51.418;7.572;2023-03-23T12:57:00;99255.03;;;15.32;65.83
45888;BME280;31595;51.418;7.572;2023-03-23T12:59:36;99257.25;;;15.19;65.80
45888;BME280;31595;51.418;7.572;2023-03-23T13:02:14;99270.66;;;15.06;65.80
45888;BME280;31595;51.418;7.572;2023-03-23T13:04:49;99265.53;;;15.12;66.59
45888;BME280;31595;51.418;7.572;2023-03-23T13:07:21;99265.16;;;15.13;66.25
45888;BME280;31595;51.418;7.572;2023-03-23T13:10:02;99263.91;;;15.11;66.83
45888;BME280;31595;51.418;7.572;2023-03-23T13:13:11;99261.53;;;15.13;65.81
45888;BME280;31595;51.418;7.572;2023-03-23T13:15:48;99265.16;;;14.90;66.24
45888;BME280;31595;51.418;7.572;2023-03-23T13:18:31;99268.97;;;15.25;66.95
45888;BME280;31595;51.418;7.572;2023-03-23T13:21:05;99268.97;;;15.25;66.04
45888;BME280;31595;51.418;7.572;2023-03-23T13:23:41;99256.91;;;15.24;66.03
45888;BME280;31595;51.418;7.572;2023-03-23T13:26:51;99260.78;;;15.16;66.34
45888;BME280;31595;51.418;7.572;2023-03-23T13:29:13;99262.72;;;15.12;66.97
45888;BME280;31595;51.418;7.572;2023-03-23T13:31:47;99267.47;;;15.08;66.88
45888;BME280;31595;51.418;7.572;2023-03-23T13:34:18;99256.75;;;15.13;67.93
45888;BME280;31595;51.418;7.572;2023-03-23T13:37:19;99236.88;;;15.49;67.07
45888;BME280;31595;51.418;7.572;2023-03-23T13:39:50;99231.66;;;15.74;66.44
45888;BME280;31595;51.418;7.572;2023-03-23T13:42:31;99246.69;;;15.89;65.66
45888;BME280;31595;51.418;7.572;2023-03-23T13:45:19;99226.78;;;16.72;65.18
45888;BME280;31595;51.418;7.572;2023-03-23T13:48:39;99225.88;;;17.57;62.10
45888;BME280;31595;51.418;7.572;2023-03-23T13:50:57;99239.31;;;17.23;61.56
45888;BME280;31595;51.418;7.572;2023-03-23T13:53:50;99229.44;;;16.95;61.35
45888;BME280;31595;51.418;7.572;2023-03-23T13:56:42;99229.19;;;16.70;61.78
45888;BME280;31595;51.418;7.572;2023-03-23T13:59:16;99226.41;;;16.36;61.85
45888;BME280;31595;51.418;7.572;2023-03-23T14:01:56;99226.00;;;16.04;61.65
45888;BME280;31595;51.418;7.572;2023-03-23T14:04:46;99227.81;;;15.86;63.01
45888;BME280;31595;51.418;7.572;2023-03-23T14:07:23;99226.66;;;15.63;63.76
45888;BME280;31595;51.418;7.572;2023-03-23T14:09:54;99236.53;;;15.54;64.63
45888;BME280;31595;51.418;7.572;2023-03-23T14:12:31;99241.50;;;15.64;65.32
45888;BME280;31595;51.418;7.572;2023-03-23T14:15:04;99244.97;;;15.80;65.17
45888;BME280;31595;51.418;7.572;2023-03-23T14:17:39;99241.94;;;15.93;65.39
45888;BME280;31595;51.418;7.572;2023-03-23T14:20:20;99237.09;;;15.90;64.89
45888;BME280;31595;51.418;7.572;2023-03-23T14:22:54;99244.00;;;15.96;64.88
45888;BME280;31595;51.418;7.572;2023-03-23T14:25:27;99242.84;;;16.00;65.24
45888;BME280;31595;51.418;7.572;2023-03-23T14:27:58;99242.69;;;15.90;65.77
45888;BME280;31595;51.418;7.572;2023-03-23T14:30:36;99235.44;;;15.89;65.36
45888;BME280;31595;51.418;7.572;2023-03-23T14:33:05;99240.41;;;15.99;64.85
45888;BME280;31595;51.418;7.572;2023-03-23T14:35:51;99246.16;;;16.10;65.11
45888;BME280;31595;51.418;7.572;2023-03-23T14:38:28;99251.63;;;15.99;64.99